Mbour, Senegal
Current Conditions -  °F | °C
As of 5:30 AM on Saturday 25 Oct 2014 (Local Time) from GOOY Reporting Station
Few Clouds Few Clouds  
Wind Chill: 79°   Ceiling: Unl
Heat Index: 82°   Visibility: 6mi
Dew Point: 75°   Wind: 3mph
Humidity: 89%   Direction: 290°WNW
Pressure: 29.8"   Gusts: NA
Location:  14.43°N, 16.97°W
Report Text: GOOY 250530Z 29003KT 9999 FEW008 26/24 Q1009 NOSIG
Loading
Personal Weather Stations






























Interactive Weather Map
Tropical Storm Tracking
New forecast layout! Learn more

10-Day Weather Forecast

Advertisements
Track Severe Weather on mobile